createdAt,value
2022-11-04T00:00:28.507Z,91.91
2022-11-04T00:02:51.569Z,93.40
2022-11-04T00:05:13.114Z,93.36
2022-11-04T00:07:52.974Z,92.27
2022-11-04T00:10:14.465Z,92.68
2022-11-04T00:12:35.923Z,92.06
2022-11-04T00:15:17.373Z,93.30
2022-11-04T00:17:38.841Z,92.82
2022-11-04T00:20:19.154Z,93.43
2022-11-04T00:23:01.087Z,92.99
2022-11-04T00:28:33.860Z,94.35
2022-11-04T00:30:58.071Z,93.45
2022-11-04T00:33:25.770Z,93.53
2022-11-04T00:35:51.207Z,93.44
2022-11-04T00:38:12.664Z,93.41
2022-11-04T00:40:34.143Z,93.22
2022-11-04T00:42:55.591Z,93.47
2022-11-04T00:45:17.177Z,94.46
2022-11-04T00:47:38.672Z,95.71
2022-11-04T00:50:00.146Z,95.67
2022-11-04T00:52:21.951Z,95.74
2022-11-04T00:54:43.468Z,97.52
2022-11-04T00:57:05.019Z,100.00
2022-11-04T00:59:26.493Z,100.00
2022-11-04T01:01:48.196Z,100.00
2022-11-04T01:04:09.848Z,100.00
2022-11-04T01:06:31.434Z,100.00
2022-11-04T01:08:58.880Z,100.00
2022-11-04T01:11:20.373Z,100.00
2022-11-04T01:13:41.882Z,100.00
2022-11-04T01:16:06.972Z,100.00
2022-11-04T01:18:29.055Z,100.00
2022-11-04T01:20:50.534Z,100.00
2022-11-04T01:23:12.005Z,100.00
2022-11-04T01:25:33.485Z,100.00
2022-11-04T01:27:55.674Z,100.00
2022-11-04T01:30:17.137Z,100.00
2022-11-04T01:32:38.645Z,100.00
2022-11-04T01:35:00.137Z,100.00
2022-11-04T01:37:21.598Z,100.00
2022-11-04T01:39:43.104Z,100.00
2022-11-04T01:44:47.554Z,100.00
2022-11-04T01:47:24.953Z,100.00
2022-11-04T01:49:52.092Z,100.00
2022-11-04T01:52:21.710Z,100.00
2022-11-04T01:54:47.867Z,100.00
2022-11-04T01:57:15.191Z,100.00
2022-11-04T01:59:40.250Z,100.00
2022-11-04T02:02:02.206Z,100.00
2022-11-04T02:04:26.666Z,100.00
2022-11-04T02:06:49.785Z,100.00
2022-11-04T02:09:11.844Z,100.00
2022-11-04T02:11:51.724Z,100.00
2022-11-04T02:14:13.258Z,100.00
2022-11-04T02:16:43.534Z,100.00
2022-11-04T02:19:35.429Z,100.00
2022-11-04T02:22:08.462Z,100.00
2022-11-04T02:24:47.713Z,100.00
2022-11-04T02:27:30.770Z,100.00
2022-11-04T02:30:01.393Z,100.00
2022-11-04T02:32:34.168Z,100.00
2022-11-04T02:35:23.531Z,100.00
2022-11-04T02:37:57.719Z,100.00
2022-11-04T02:40:31.201Z,100.00
2022-11-04T02:43:18.653Z,100.00
2022-11-04T02:46:15.642Z,100.00
2022-11-04T02:48:46.480Z,100.00
2022-11-04T02:51:15.333Z,100.00
2022-11-04T02:53:42.474Z,100.00
2022-11-04T02:56:05.661Z,100.00
2022-11-04T02:58:38.603Z,100.00
2022-11-04T03:01:03.390Z,100.00
2022-11-04T03:03:38.926Z,100.00
2022-11-04T03:06:03.487Z,100.00
2022-11-04T03:08:30.243Z,100.00
2022-11-04T03:10:56.802Z,100.00
2022-11-04T03:13:53.717Z,100.00
2022-11-04T03:16:22.105Z,100.00
2022-11-04T03:19:13.982Z,100.00
2022-11-04T03:21:41.474Z,100.00
2022-11-04T03:24:04.658Z,100.00
2022-11-04T03:26:45.070Z,100.00
2022-11-04T03:29:09.334Z,100.00
2022-11-04T03:31:56.023Z,100.00
2022-11-04T03:34:17.525Z,100.00
2022-11-04T03:36:39.215Z,99.11
2022-11-04T03:39:00.908Z,100.00
2022-11-04T03:41:37.904Z,100.00
2022-11-04T03:43:59.446Z,100.00
2022-11-04T03:46:22.467Z,100.00
2022-11-04T03:48:46.553Z,100.00
2022-11-04T03:51:09.367Z,100.00
2022-11-04T03:53:31.760Z,100.00
2022-11-04T03:56:21.266Z,100.00
2022-11-04T03:58:53.265Z,100.00
2022-11-04T04:01:23.434Z,100.00
2022-11-04T04:03:58.114Z,97.24
2022-11-04T04:06:27.342Z,98.59
2022-11-04T04:09:08.982Z,97.53
2022-11-04T04:11:58.108Z,95.01
2022-11-04T04:14:40.304Z,95.79
2022-11-04T04:17:16.361Z,96.59
2022-11-04T04:19:38.625Z,97.23
2022-11-04T04:22:13.411Z,97.43
2022-11-04T04:24:58.585Z,97.59
2022-11-04T04:27:33.851Z,97.93
2022-11-04T04:29:55.628Z,98.46
2022-11-04T04:32:17.983Z,96.84
2022-11-04T04:34:39.978Z,96.56
2022-11-04T04:37:05.614Z,96.17
2022-11-04T04:39:53.612Z,96.81
2022-11-04T04:42:33.991Z,96.54
2022-11-04T04:45:04.627Z,96.12
2022-11-04T04:47:29.022Z,96.47
2022-11-04T04:49:55.291Z,97.09
2022-11-04T04:52:17.225Z,97.89
2022-11-04T04:54:38.698Z,97.36
2022-11-04T04:57:00.191Z,97.23
2022-11-04T04:59:21.633Z,97.03
2022-11-04T05:01:43.240Z,95.09
2022-11-04T05:04:04.940Z,94.85
2022-11-04T05:06:27.128Z,94.82
2022-11-04T05:08:48.637Z,92.98
2022-11-04T05:11:10.198Z,91.68
2022-11-04T05:13:31.896Z,91.78
2022-11-04T05:15:53.481Z,92.32
2022-11-04T05:18:14.973Z,92.69
2022-11-04T05:20:38.473Z,93.23
2022-11-04T05:23:00.223Z,93.13
2022-11-04T05:25:21.717Z,92.61
2022-11-04T05:27:43.190Z,91.57
2022-11-04T05:30:05.299Z,92.47
2022-11-04T05:32:29.331Z,94.97
2022-11-04T05:34:50.775Z,95.00
2022-11-04T05:37:12.268Z,96.59
2022-11-04T05:39:33.724Z,94.95
2022-11-04T05:41:55.202Z,94.42
2022-11-04T05:44:16.772Z,93.67
2022-11-04T05:46:38.275Z,93.58
2022-11-04T05:48:59.741Z,94.16
2022-11-04T05:51:24.676Z,94.57
2022-11-04T05:53:46.192Z,95.42
2022-11-04T05:56:08.633Z,95.28
2022-11-04T05:58:30.110Z,95.53
2022-11-04T06:00:51.626Z,95.45
2022-11-04T06:03:16.220Z,95.81
2022-11-04T06:05:38.071Z,96.19
2022-11-04T06:07:59.551Z,94.41
2022-11-04T06:10:21.224Z,92.90
2022-11-04T06:12:42.734Z,93.74
2022-11-04T06:15:04.741Z,93.51
2022-11-04T06:17:26.201Z,92.87
2022-11-04T06:19:48.357Z,94.11
2022-11-04T06:22:12.409Z,94.18
2022-11-04T06:24:33.932Z,93.88
2022-11-04T06:26:55.430Z,93.14
2022-11-04T06:29:16.985Z,93.24
2022-11-04T06:31:38.513Z,92.21
2022-11-04T06:34:00.006Z,92.08
2022-11-04T06:36:21.497Z,92.76
2022-11-04T06:38:43.451Z,92.14
2022-11-04T06:41:07.324Z,92.64
2022-11-04T06:43:28.817Z,92.88
2022-11-04T06:45:58.043Z,93.30
2022-11-04T06:48:19.494Z,92.71
2022-11-04T06:50:40.991Z,92.34
2022-11-04T06:53:02.485Z,92.50
2022-11-04T06:55:23.976Z,90.94
2022-11-04T06:57:45.484Z,90.50
2022-11-04T07:00:07.706Z,90.54
2022-11-04T07:02:29.252Z,90.47
2022-11-04T07:04:50.986Z,90.17
2022-11-04T07:07:12.728Z,89.38
2022-11-04T07:09:35.368Z,89.03
2022-11-04T07:11:56.881Z,88.33
2022-11-04T07:14:18.389Z,88.21
2022-11-04T07:16:39.995Z,87.85
2022-11-04T07:19:01.737Z,87.99
2022-11-04T07:21:23.832Z,87.43
2022-11-04T07:23:45.398Z,87.79
2022-11-04T07:26:08.742Z,87.80
2022-11-04T07:28:30.640Z,87.61
2022-11-04T07:30:52.168Z,87.25
2022-11-04T07:33:13.701Z,86.50
2022-11-04T07:35:36.391Z,86.34
2022-11-04T07:37:57.868Z,85.29
2022-11-04T07:40:19.371Z,85.43
2022-11-04T07:42:40.928Z,85.25
2022-11-04T07:45:02.660Z,85.06
2022-11-04T07:47:24.265Z,84.73
2022-11-04T07:49:45.770Z,82.50
2022-11-04T07:52:07.266Z,83.00
2022-11-04T07:54:28.950Z,82.48
2022-11-04T07:56:50.418Z,82.61
2022-11-04T07:59:11.917Z,81.52
2022-11-04T08:01:33.525Z,80.93
2022-11-04T08:03:55.056Z,82.57
2022-11-04T08:06:18.742Z,84.30
2022-11-04T08:08:40.549Z,85.35
2022-11-04T08:11:16.831Z,86.47
2022-11-04T08:13:40.518Z,87.10
2022-11-04T08:16:04.371Z,88.09
2022-11-04T08:18:25.835Z,88.12
2022-11-04T08:20:51.576Z,88.62
2022-11-04T08:23:13.388Z,89.24
2022-11-04T08:25:35.449Z,88.72
2022-11-04T08:28:00.812Z,87.72
2022-11-04T08:30:22.832Z,87.46
2022-11-04T08:32:44.396Z,87.70
2022-11-04T08:35:06.245Z,87.38
2022-11-04T08:37:27.869Z,87.32
2022-11-04T08:39:49.376Z,87.46
2022-11-04T08:42:10.957Z,85.91
2022-11-04T08:44:34.049Z,85.10
2022-11-04T08:46:55.661Z,85.28
2022-11-04T08:49:21.067Z,85.55
2022-11-04T08:51:47.073Z,85.68
2022-11-04T08:54:08.661Z,84.59
2022-11-04T08:56:33.226Z,83.55
2022-11-04T08:58:59.019Z,84.65
2022-11-04T09:01:21.439Z,83.73
2022-11-04T09:03:43.533Z,83.49
2022-11-04T09:06:12.113Z,84.61
2022-11-04T09:08:33.875Z,82.23
2022-11-04T09:10:55.359Z,82.13
2022-11-04T09:13:16.915Z,80.78
2022-11-04T09:15:38.920Z,80.75
2022-11-04T09:18:00.378Z,80.41
2022-11-04T09:20:21.919Z,78.60
2022-11-04T09:22:45.901Z,79.95
2022-11-04T09:25:07.984Z,81.41
2022-11-04T09:27:29.575Z,80.42
2022-11-04T09:29:51.055Z,81.35
2022-11-04T09:32:12.527Z,80.61
2022-11-04T09:34:34.456Z,81.65
2022-11-04T09:36:57.102Z,81.12
2022-11-04T09:39:18.681Z,80.62
2022-11-04T09:41:40.583Z,81.04
2022-11-04T09:44:02.007Z,78.86
2022-11-04T09:46:24.463Z,78.08
2022-11-04T09:48:50.699Z,78.51
2022-11-04T09:51:32.578Z,79.33
2022-11-04T09:54:02.370Z,81.27
2022-11-04T09:56:28.687Z,80.52
2022-11-04T09:58:51.705Z,80.39
2022-11-04T10:01:29.478Z,80.08
2022-11-04T10:04:12.741Z,79.91
2022-11-04T10:06:52.175Z,80.77
2022-11-04T10:09:22.702Z,79.80
2022-11-04T10:12:02.255Z,79.72
2022-11-04T10:14:42.148Z,77.79
2022-11-04T10:17:18.564Z,79.48
2022-11-04T10:19:54.870Z,76.98
2022-11-04T10:22:32.214Z,78.22
2022-11-04T10:25:20.728Z,75.28
2022-11-04T10:27:46.134Z,77.37
2022-11-04T10:30:17.895Z,77.54
2022-11-04T10:33:01.707Z,77.91
2022-11-04T10:35:35.408Z,76.97
2022-11-04T10:38:01.678Z,75.75
2022-11-04T10:40:36.654Z,76.68
2022-11-04T10:43:00.734Z,74.28
2022-11-04T10:45:34.074Z,73.10
2022-11-04T10:47:59.059Z,68.94
2022-11-04T10:50:31.621Z,70.33
2022-11-04T10:53:02.097Z,71.89
2022-11-04T10:55:50.767Z,69.03
2022-11-04T10:58:21.591Z,69.64
2022-11-04T11:00:44.285Z,69.17
2022-11-04T11:03:27.929Z,71.15
2022-11-04T11:05:50.032Z,71.53
2022-11-04T11:08:29.061Z,71.67
2022-11-04T11:10:52.800Z,73.27
2022-11-04T11:13:27.194Z,72.98
2022-11-04T11:15:49.799Z,70.42
2022-11-04T11:18:17.568Z,71.37
2022-11-04T11:20:41.016Z,71.83
2022-11-04T11:23:05.038Z,73.14
2022-11-04T11:25:26.786Z,72.42
2022-11-04T11:28:13.228Z,70.63
2022-11-04T11:30:53.873Z,71.58
2022-11-04T11:33:27.921Z,70.42
2022-11-04T11:36:00.150Z,71.45
2022-11-04T11:38:29.542Z,68.39
2022-11-04T11:41:22.908Z,67.64
2022-11-04T11:43:40.723Z,66.74
2022-11-04T11:46:03.336Z,67.02
2022-11-04T11:48:32.299Z,67.48
2022-11-04T11:50:58.993Z,65.64
2022-11-04T11:53:24.274Z,67.26
2022-11-04T11:55:57.918Z,67.77
2022-11-04T12:01:25.308Z,69.52
2022-11-04T12:09:47.495Z,65.94
2022-11-04T12:12:14.843Z,66.23
2022-11-04T12:15:07.199Z,65.68
2022-11-04T12:17:50.099Z,63.21
2022-11-04T12:20:40.980Z,64.40
2022-11-04T12:23:17.663Z,64.42
2022-11-04T12:26:00.655Z,63.32
2022-11-04T12:28:43.682Z,64.65
2022-11-04T12:31:25.973Z,64.82
2022-11-04T12:33:53.877Z,65.77
2022-11-04T12:36:46.128Z,64.56
2022-11-04T12:39:13.529Z,65.66
2022-11-04T12:42:14.773Z,64.61
2022-11-04T12:44:30.734Z,64.67
2022-11-04T12:47:19.925Z,66.28
2022-11-04T12:50:03.482Z,65.52
2022-11-04T12:52:46.181Z,65.92
2022-11-04T12:55:26.166Z,67.81
2022-11-04T12:58:14.774Z,67.24
2022-11-04T13:00:38.836Z,63.98
2022-11-04T13:03:15.911Z,64.48
2022-11-04T13:05:43.926Z,64.10
2022-11-04T13:08:14.956Z,64.38
2022-11-04T13:11:38.004Z,64.94
2022-11-04T13:14:19.253Z,67.77
2022-11-04T13:16:43.294Z,67.79
2022-11-04T13:19:23.779Z,68.96
2022-11-04T13:21:45.662Z,64.52
2022-11-04T13:24:21.396Z,64.68
2022-11-04T13:26:43.271Z,63.55
2022-11-04T13:29:14.109Z,63.40
2022-11-04T13:32:16.871Z,64.16
2022-11-04T13:34:56.092Z,62.28
2022-11-04T13:37:26.117Z,64.51
2022-11-04T13:40:16.293Z,65.64
2022-11-04T13:43:37.986Z,65.06
2022-11-04T13:45:59.755Z,65.81
2022-11-04T13:48:29.589Z,65.91
2022-11-04T13:51:00.080Z,65.05
2022-11-04T13:53:40.501Z,64.69
2022-11-04T13:56:31.165Z,64.74
2022-11-04T13:58:53.294Z,65.60
2022-11-04T14:01:29.390Z,64.43
2022-11-04T14:03:53.047Z,63.84
2022-11-04T14:06:14.608Z,62.81
2022-11-04T14:08:36.302Z,62.63
2022-11-04T14:11:10.807Z,62.18
2022-11-04T14:13:37.334Z,61.08
2022-11-04T14:16:17.748Z,60.81
2022-11-04T14:18:42.016Z,59.54
2022-11-04T14:21:15.729Z,60.28
2022-11-04T14:23:39.631Z,60.82
2022-11-04T14:26:07.013Z,60.18
2022-11-04T14:28:30.994Z,60.16
2022-11-04T14:31:03.930Z,60.27
2022-11-04T14:33:51.819Z,60.19
2022-11-04T14:36:25.091Z,59.90
2022-11-04T14:39:05.304Z,60.45
2022-11-04T14:41:50.331Z,61.59
2022-11-04T14:44:29.851Z,61.61
2022-11-04T14:46:56.083Z,59.95
2022-11-04T14:49:40.295Z,60.78
2022-11-04T14:52:02.083Z,62.72
2022-11-04T14:54:26.972Z,63.14
2022-11-04T14:56:48.759Z,62.18
2022-11-04T14:59:21.343Z,61.74
2022-11-04T15:01:43.172Z,61.24
2022-11-04T15:04:25.191Z,61.82
2022-11-04T15:06:55.666Z,63.78
2022-11-04T15:09:26.575Z,63.98
2022-11-04T15:12:06.646Z,65.28
2022-11-04T15:14:28.146Z,65.00
2022-11-04T15:16:57.073Z,65.24
2022-11-04T15:19:29.354Z,66.16
2022-11-04T15:21:51.031Z,65.98
2022-11-04T15:24:19.493Z,67.70
2022-11-04T15:26:41.062Z,69.12
2022-11-04T15:29:09.207Z,68.82
2022-11-04T15:31:32.964Z,68.77
2022-11-04T15:33:57.384Z,68.60
2022-11-04T15:36:22.671Z,69.09
2022-11-04T15:38:58.713Z,69.17
2022-11-04T15:41:40.778Z,69.71
2022-11-04T15:44:02.330Z,70.15
2022-11-04T15:46:27.331Z,70.07
2022-11-04T15:49:26.158Z,69.93
2022-11-04T15:51:49.140Z,69.82
2022-11-04T15:54:31.054Z,69.51
2022-11-04T15:56:55.369Z,69.86
2022-11-04T15:59:21.116Z,69.32
2022-11-04T16:01:52.115Z,69.21
2022-11-04T16:04:16.381Z,69.32
2022-11-04T16:06:41.089Z,68.67
2022-11-04T16:09:19.370Z,68.67
2022-11-04T16:11:40.870Z,68.81
2022-11-04T16:14:24.985Z,68.92
2022-11-04T16:16:49.634Z,69.23
2022-11-04T16:19:21.873Z,69.10
2022-11-04T16:21:45.725Z,69.12
2022-11-04T16:24:20.534Z,69.28
2022-11-04T16:26:44.623Z,69.76
2022-11-04T16:29:14.898Z,69.88
2022-11-04T16:31:37.438Z,70.04
2022-11-04T16:33:59.332Z,69.73
2022-11-04T16:36:23.763Z,70.08
2022-11-04T16:38:45.223Z,69.80
2022-11-04T16:41:06.704Z,70.14
2022-11-04T16:43:28.140Z,70.28
2022-11-04T16:45:53.863Z,69.94
2022-11-04T16:48:18.016Z,70.16
2022-11-04T16:50:39.551Z,70.42
2022-11-04T16:53:03.684Z,70.13
2022-11-04T16:55:26.554Z,70.06
2022-11-04T16:57:51.363Z,70.52
2022-11-04T17:00:22.837Z,71.35
2022-11-04T17:02:44.338Z,72.41
2022-11-04T17:05:06.261Z,72.49
2022-11-04T17:07:47.341Z,72.47
2022-11-04T17:10:19.415Z,71.79
2022-11-04T17:12:40.864Z,72.15
2022-11-04T17:15:02.354Z,72.37
2022-11-04T17:17:23.805Z,72.47
2022-11-04T17:19:45.292Z,73.72
2022-11-04T17:22:08.487Z,73.66
2022-11-04T17:24:30.131Z,73.64
2022-11-04T17:26:51.815Z,73.67
2022-11-04T17:29:17.320Z,73.28
2022-11-04T17:31:39.102Z,74.55
2022-11-04T17:34:00.639Z,74.09
2022-11-04T17:36:22.414Z,74.46
2022-11-04T17:38:43.934Z,74.16
2022-11-04T17:41:34.879Z,74.57
2022-11-04T17:44:02.777Z,74.70
2022-11-04T17:46:41.460Z,75.36
2022-11-04T17:49:18.090Z,74.90
2022-11-04T17:51:41.613Z,74.93
2022-11-04T17:54:03.606Z,75.60
2022-11-04T17:56:25.885Z,75.52
2022-11-04T17:58:48.234Z,75.38
2022-11-04T18:01:10.964Z,75.53
2022-11-04T18:03:32.611Z,75.43
2022-11-04T18:06:00.336Z,75.92
2022-11-04T18:08:21.805Z,76.73
2022-11-04T18:10:43.277Z,76.21
2022-11-04T18:13:04.768Z,78.00
2022-11-04T18:15:26.255Z,78.81
2022-11-04T18:17:49.968Z,78.77
2022-11-04T18:20:15.355Z,78.54
2022-11-04T18:22:38.515Z,79.14
2022-11-04T18:25:00.092Z,78.36
2022-11-04T18:27:21.598Z,78.51
2022-11-04T18:29:43.044Z,79.61
2022-11-04T18:32:04.892Z,78.54
2022-11-04T18:34:26.365Z,78.36
2022-11-04T18:36:48.952Z,78.15
2022-11-04T18:39:13.718Z,78.10
2022-11-04T18:41:36.742Z,77.93
2022-11-04T18:43:58.278Z,77.79
2022-11-04T18:46:20.255Z,78.75
2022-11-04T18:48:42.834Z,79.61
2022-11-04T18:51:07.688Z,80.59
2022-11-04T18:53:29.171Z,79.64
2022-11-04T18:55:50.717Z,79.50
2022-11-04T18:58:12.449Z,80.30
2022-11-04T19:00:34.252Z,80.03
2022-11-04T19:02:55.703Z,79.68
2022-11-04T19:05:17.442Z,79.38
2022-11-04T19:07:39.269Z,79.40
2022-11-04T19:10:00.770Z,79.47
2022-11-04T19:12:40.882Z,79.50
2022-11-04T19:15:04.422Z,79.08
2022-11-04T19:17:25.931Z,79.27
2022-11-04T19:19:47.458Z,79.82
2022-11-04T19:22:09.522Z,79.04
2022-11-04T19:24:31.115Z,80.79
2022-11-04T19:26:52.611Z,80.14
2022-11-04T19:29:14.079Z,79.60
2022-11-04T19:31:36.622Z,81.35
2022-11-04T19:33:59.633Z,80.38
2022-11-04T19:36:22.796Z,80.07
2022-11-04T19:38:44.550Z,80.99
2022-11-04T19:41:29.111Z,82.29
2022-11-04T19:43:50.574Z,81.80
2022-11-04T19:46:12.194Z,82.28
2022-11-04T19:48:35.728Z,81.12
2022-11-04T19:50:57.346Z,80.69
2022-11-04T19:53:18.901Z,80.87
2022-11-04T19:55:46.809Z,82.35
2022-11-04T19:58:08.564Z,81.98
2022-11-04T20:00:31.877Z,81.68
2022-11-04T20:02:53.383Z,85.55
2022-11-04T20:05:14.964Z,83.86
2022-11-04T20:07:36.409Z,84.14
2022-11-04T20:09:58.245Z,84.57
2022-11-04T20:12:38.096Z,87.95
2022-11-04T20:14:59.633Z,88.04
2022-11-04T20:17:21.417Z,86.61
2022-11-04T20:19:43.036Z,86.29
2022-11-04T20:22:04.549Z,88.40
2022-11-04T20:24:26.050Z,87.73
2022-11-04T20:26:47.653Z,88.91
2022-11-04T20:29:10.890Z,89.40
2022-11-04T20:31:34.798Z,87.76
2022-11-04T20:33:57.476Z,87.69
2022-11-04T20:36:21.122Z,87.41
2022-11-04T20:38:42.663Z,88.20
2022-11-04T20:41:10.388Z,88.64
2022-11-04T20:43:36.383Z,88.00
2022-11-04T20:46:02.222Z,87.29
2022-11-04T20:48:23.707Z,87.57
2022-11-04T20:50:45.262Z,87.10
2022-11-04T20:53:06.757Z,86.93
2022-11-04T20:55:28.245Z,86.87
2022-11-04T20:57:49.728Z,87.59
2022-11-04T21:00:12.960Z,87.37
2022-11-04T21:02:35.357Z,87.22
2022-11-04T21:04:56.900Z,87.23
2022-11-04T21:07:18.382Z,87.15
2022-11-04T21:09:39.847Z,87.06
2022-11-04T21:12:01.337Z,86.73
2022-11-04T21:14:22.822Z,86.48
2022-11-04T21:16:44.285Z,86.53
2022-11-04T21:19:06.623Z,87.41
2022-11-04T21:21:29.727Z,86.86
2022-11-04T21:23:56.181Z,86.56
2022-11-04T21:26:23.766Z,86.58
2022-11-04T21:28:45.254Z,86.43
2022-11-04T21:31:10.373Z,86.85
2022-11-04T21:33:32.280Z,86.50
2022-11-04T21:35:54.305Z,86.85
2022-11-04T21:38:17.538Z,86.58
2022-11-04T21:40:39.258Z,86.66
2022-11-04T21:43:01.291Z,86.58
2022-11-04T21:45:22.803Z,86.66
2022-11-04T21:47:44.373Z,86.52
2022-11-04T21:50:06.474Z,86.83
2022-11-04T21:52:27.972Z,87.10
2022-11-04T21:54:49.466Z,87.35
2022-11-04T21:57:10.935Z,89.55
2022-11-04T21:59:32.445Z,88.83
2022-11-04T22:01:54.136Z,87.99
2022-11-04T22:04:15.783Z,87.75
2022-11-04T22:06:37.471Z,89.30
2022-11-04T22:08:59.243Z,88.72
2022-11-04T22:11:26.280Z,88.80
2022-11-04T22:13:47.777Z,88.46
2022-11-04T22:16:21.103Z,88.08
2022-11-04T22:18:43.476Z,87.65
2022-11-04T22:21:07.286Z,87.85
2022-11-04T22:23:29.067Z,87.94
2022-11-04T22:25:50.643Z,87.97
2022-11-04T22:28:12.168Z,88.69
2022-11-04T22:30:38.545Z,88.35
2022-11-04T22:33:00.592Z,88.11
2022-11-04T22:35:22.198Z,88.22
2022-11-04T22:37:43.667Z,88.40
2022-11-04T22:40:06.219Z,88.16
2022-11-04T22:42:27.678Z,88.78
2022-11-04T22:44:49.389Z,88.27
2022-11-04T22:47:11.038Z,88.06
2022-11-04T22:49:32.532Z,88.97
2022-11-04T22:51:53.989Z,89.12
2022-11-04T22:54:15.461Z,88.38
2022-11-04T22:56:37.349Z,88.34
2022-11-04T22:59:00.377Z,88.45
2022-11-04T23:01:22.655Z,88.21
2022-11-04T23:03:44.296Z,87.85
2022-11-04T23:06:07.367Z,88.35
2022-11-04T23:08:30.755Z,88.70
2022-11-04T23:11:14.937Z,88.73
2022-11-04T23:13:54.882Z,88.57
2022-11-04T23:16:34.974Z,89.28
2022-11-04T23:18:56.473Z,88.74
2022-11-04T23:21:39.242Z,88.64
2022-11-04T23:24:36.111Z,88.49
2022-11-04T23:26:57.626Z,88.42
2022-11-04T23:29:37.541Z,89.46
2022-11-04T23:31:59.081Z,88.91
2022-11-04T23:34:39.263Z,88.53
2022-11-04T23:37:12.940Z,88.66
2022-11-04T23:39:34.424Z,88.84
2022-11-04T23:42:14.273Z,88.12
2022-11-04T23:44:54.141Z,88.35
2022-11-04T23:47:34.374Z,88.39
2022-11-04T23:50:14.379Z,90.33
2022-11-04T23:52:54.435Z,90.43
2022-11-04T23:55:34.611Z,89.53
2022-11-04T23:58:28.150Z,89.35
